Time;durP1;ratioP1;P1;durP2;ratioP2;P2;SDS_P1;SDS_P2;PMS_P1;PMS_P2;Temp;Humidity;BMP_temperature;BMP_pressure;BME280_temperature;BME280_humidity;BME280_pressure;Samples;Min_cycle;Max_cycle;Signal;HPM_P1;HPM_P2
2021/07/26 00:01:46;;;;;;;14.13;7.03;;;;;;;17.21;100.00;101042.19;4987988;28;20062;-78
2021/07/26 00:04:14;;;;;;;12.40;6.85;;;;;;;17.13;100.00;101046.19;4980183;28;20125;-79
2021/07/26 00:06:43;;;;;;;12.18;7.10;;;;;;;17.08;100.00;101040.19;4983802;28;20476;-79
2021/07/26 00:09:11;;;;;;;12.43;7.60;;;;;;;17.10;100.00;101040.09;4983742;28;20089;-77
2021/07/26 00:11:40;;;;;;;14.65;7.57;;;;;;;17.09;100.00;101041.03;4979759;28;20446;-72
2021/07/26 00:14:07;;;;;;;11.00;6.22;;;;;;;17.07;100.00;101045.66;4977736;28;20089;-72
2021/07/26 00:16:35;;;;;;;12.10;7.63;;;;;;;17.07;100.00;101048.34;4979086;28;20149;-72
2021/07/26 00:19:03;;;;;;;11.50;6.68;;;;;;;17.04;100.00;101024.25;4980957;28;20350;-72
2021/07/26 00:21:31;;;;;;;11.95;6.80;;;;;;;17.04;100.00;101035.03;4978619;28;20169;-73
2021/07/26 00:23:59;;;;;;;11.85;7.47;;;;;;;17.05;100.00;101034.09;4980008;28;20042;-72
2021/07/26 00:26:26;;;;;;;16.23;7.65;;;;;;;17.04;100.00;101045.81;4981292;28;20458;-72
2021/07/26 00:28:55;;;;;;;14.05;8.27;;;;;;;17.01;100.00;101037.91;4978082;28;20065;-72
2021/07/26 00:31:23;;;;;;;12.80;6.95;;;;;;;16.97;100.00;101040.78;4979412;28;20462;-72
2021/07/26 00:34:12;;;;;;;13.35;8.23;;;;;;;16.98;100.00;101028.19;4975844;28;20086;-73
2021/07/26 00:36:41;;;;;;;14.38;7.82;;;;;;;16.95;100.00;101028.34;4981624;28;20325;-72
2021/07/26 00:39:10;;;;;;;13.30;8.70;;;;;;;16.93;100.00;101024.88;4979950;28;20739;-71
2021/07/26 00:41:39;;;;;;;15.02;7.90;;;;;;;16.89;100.00;101026.88;4981853;28;20545;-72
2021/07/26 00:44:09;;;;;;;13.32;7.65;;;;;;;16.87;100.00;101012.59;4983349;28;20125;-71
2021/07/26 00:46:37;;;;;;;13.68;8.23;;;;;;;16.86;100.00;101023.47;4982048;28;20066;-78
2021/07/26 00:49:10;;;;;;;14.02;7.88;;;;;;;16.83;100.00;101011.00;4985112;28;20145;-77
2021/07/26 00:51:39;;;;;;;12.65;8.23;;;;;;;16.81;100.00;101016.47;4984409;28;20097;-77
2021/07/26 00:54:08;;;;;;;13.02;8.35;;;;;;;16.78;100.00;101013.94;4983192;28;20471;-77
2021/07/26 00:56:36;;;;;;;15.45;8.55;;;;;;;16.76;100.00;101007.75;4987671;28;20089;-77
2021/07/26 00:59:04;;;;;;;14.70;8.93;;;;;;;16.76;100.00;101013.16;4983830;28;20279;-77
2021/07/26 01:01:33;;;;;;;17.83;10.02;;;;;;;16.76;100.00;101010.47;4986859;28;20065;-77
2021/07/26 01:04:01;;;;;;;15.15;9.85;;;;;;;16.75;100.00;101010.53;4986955;28;20050;-78
2021/07/26 01:06:29;;;;;;;15.65;10.82;;;;;;;16.72;100.00;101006.22;4984165;28;20062;-77
2021/07/26 01:08:57;;;;;;;16.38;9.98;;;;;;;16.68;100.00;101006.44;4987882;28;20073;-78
2021/07/26 01:11:24;;;;;;;18.13;10.52;;;;;;;16.66;100.00;101002.97;4983355;28;20091;-78
2021/07/26 01:13:52;;;;;;;19.65;12.52;;;;;;;16.68;100.00;101011.84;4990022;28;20057;-78
2021/07/26 01:16:23;;;;;;;17.85;11.35;;;;;;;16.67;100.00;101010.97;4982174;28;20089;-78
2021/07/26 01:18:52;;;;;;;20.42;12.10;;;;;;;16.67;100.00;101007.38;4982927;28;20153;-78
2021/07/26 01:21:21;;;;;;;19.25;11.98;;;;;;;16.68;100.00;101003.75;4985791;28;20094;-78
2021/07/26 01:23:51;;;;;;;19.45;12.07;;;;;;;16.64;100.00;101003.06;4981817;28;20089;-79
2021/07/26 01:26:20;;;;;;;18.20;10.90;;;;;;;16.66;100.00;101006.53;4989017;28;20067;-78
2021/07/26 01:28:50;;;;;;;18.15;10.10;;;;;;;16.66;100.00;101008.38;4983558;28;20062;-79
2021/07/26 01:31:19;;;;;;;21.10;12.90;;;;;;;16.67;100.00;101007.38;4985678;28;20121;-77
2021/07/26 01:33:48;;;;;;;20.05;13.07;;;;;;;16.67;100.00;101008.28;4984954;28;20395;-79
2021/07/26 01:36:16;;;;;;;18.92;11.65;;;;;;;16.69;100.00;101009.06;4982197;28;20389;-79
2021/07/26 01:38:46;;;;;;;25.52;14.15;;;;;;;16.71;100.00;101022.44;4985270;28;20412;-79
2021/07/26 01:41:18;;;;;;;23.17;14.30;;;;;;;16.72;100.00;101017.00;4982067;28;20059;-78
2021/07/26 01:44:10;;;;;;;21.13;12.73;;;;;;;16.74;100.00;101017.75;4985762;28;20116;-78
2021/07/26 01:46:49;;;;;;;22.63;13.68;;;;;;;16.76;100.00;101018.53;4979310;28;20072;-79
2021/07/26 01:49:28;;;;;;;22.50;14.43;;;;;;;16.78;100.00;101016.63;4982735;28;20089;-78
2021/07/26 01:51:57;;;;;;;25.63;14.93;;;;;;;16.78;100.00;101019.31;4984603;28;20122;-78
2021/07/26 01:54:26;;;;;;;22.75;14.02;;;;;;;16.78;100.00;101016.63;4979558;28;20156;-78
2021/07/26 01:56:54;;;;;;;27.02;16.00;;;;;;;16.80;100.00;101014.75;4980817;28;20110;-78
2021/07/26 01:59:22;;;;;;;24.73;15.10;;;;;;;16.83;100.00;101023.59;4977336;28;20217;-78
2021/07/26 02:01:50;;;;;;;27.90;16.42;;;;;;;16.84;100.00;101019.94;4981536;28;20368;-79
2021/07/26 02:04:18;;;;;;;23.67;15.82;;;;;;;16.84;100.00;101018.16;4984354;28;20058;-78
2021/07/26 02:06:45;;;;;;;25.52;15.27;;;;;;;16.87;100.00;101017.97;4979295;28;20650;-79
2021/07/26 02:09:13;;;;;;;25.88;17.15;;;;;;;16.90;100.00;101011.56;4984991;28;20439;-78
2021/07/26 02:11:42;;;;;;;25.63;17.23;;;;;;;16.90;100.00;101014.25;4983565;28;20086;-78
2021/07/26 02:14:10;;;;;;;28.52;16.60;;;;;;;16.91;100.00;101007.91;4982603;28;20062;-78
2021/07/26 02:16:39;;;;;;;25.63;15.73;;;;;;;16.93;100.00;101006.00;4986196;28;20062;-78
2021/07/26 02:19:07;;;;;;;30.00;17.13;;;;;;;16.94;100.00;101008.63;4981047;28;20058;-78
2021/07/26 02:21:35;;;;;;;26.75;16.85;;;;;;;16.95;100.00;101002.25;4985424;28;20125;-78
2021/07/26 02:24:03;;;;;;;26.95;15.95;;;;;;;16.97;100.00;101018.34;4981202;28;20105;-78
2021/07/26 02:26:32;;;;;;;29.38;17.88;;;;;;;16.96;100.00;101008.53;4983137;28;20094;-78
2021/07/26 02:29:01;;;;;;;30.80;18.48;;;;;;;16.96;100.00;101012.09;4984666;28;20570;-79
2021/07/26 02:31:29;;;;;;;25.42;16.95;;;;;;;16.97;100.00;101007.56;4983276;28;20473;-78
2021/07/26 02:33:56;;;;;;;27.27;16.35;;;;;;;16.97;100.00;101003.06;4985179;28;20410;-79
2021/07/26 02:36:24;;;;;;;26.88;17.38;;;;;;;16.98;100.00;101009.31;4982241;28;20168;-78
2021/07/26 02:38:52;;;;;;;34.22;19.10;;;;;;;16.98;100.00;101007.47;4982970;28;20070;-78
2021/07/26 02:41:19;;;;;;;34.90;19.40;;;;;;;17.01;100.00;101010.94;4981797;28;20069;-78
2021/07/26 02:43:47;;;;;;;30.23;19.45;;;;;;;17.01;100.00;101009.13;4982819;28;20108;-78
2021/07/26 02:46:16;;;;;;;29.00;17.88;;;;;;;17.03;100.00;101009.06;4984526;28;20062;-78
2021/07/26 02:48:44;;;;;;;32.60;19.65;;;;;;;17.03;100.00;101009.91;4980855;28;20094;-77
2021/07/26 02:51:12;;;;;;;30.00;18.90;;;;;;;17.02;100.00;101008.16;4983799;28;20112;-78
2021/07/26 02:53:41;;;;;;;36.65;19.42;;;;;;;17.01;100.00;101011.84;4981592;28;20050;-77
2021/07/26 02:56:10;;;;;;;30.83;17.85;;;;;;;17.01;100.00;101009.13;4981428;28;20493;-78
2021/07/26 02:58:39;;;;;;;33.38;18.95;;;;;;;17.02;100.00;101013.56;4986193;28;20497;-79
2021/07/26 03:01:10;;;;;;;29.33;18.00;;;;;;;17.03;100.00;101017.16;4977634;28;20065;-78
2021/07/26 03:03:42;;;;;;;31.67;18.95;;;;;;;17.03;100.00;101006.34;4985244;28;20441;-79
2021/07/26 03:06:17;;;;;;;31.83;19.65;;;;;;;17.01;100.00;101017.22;4984645;28;20058;-79
2021/07/26 03:08:45;;;;;;;30.85;18.50;;;;;;;17.03;100.00;101019.84;4980631;28;20149;-78
2021/07/26 03:11:13;;;;;;;32.05;20.38;;;;;;;16.99;100.00;101019.13;4985520;28;20066;-79
2021/07/26 03:13:42;;;;;;;30.17;20.42;;;;;;;17.00;100.00;101015.47;4981934;28;20112;-78
2021/07/26 03:16:12;;;;;;;32.92;19.00;;;;;;;16.98;100.00;101020.94;4982996;28;20744;-79
2021/07/26 03:18:42;;;;;;;27.20;17.27;;;;;;;16.98;100.00;101020.94;4984371;28;20445;-78
2021/07/26 03:21:13;;;;;;;31.70;20.15;;;;;;;16.98;100.00;101029.03;4980606;28;20121;-78
2021/07/26 03:23:43;;;;;;;31.05;19.02;;;;;;;16.98;100.00;101026.34;4984783;28;20070;-79
2021/07/26 03:26:11;;;;;;;32.67;19.33;;;;;;;16.96;100.00;101027.41;4981415;28;20488;-78
2021/07/26 03:28:40;;;;;;;29.92;17.88;;;;;;;16.97;100.00;101026.41;4982629;28;20140;-78
2021/07/26 03:31:08;;;;;;;30.30;18.90;;;;;;;16.95;100.00;101029.19;4980322;28;20264;-78
2021/07/26 03:33:35;;;;;;;26.73;16.23;;;;;;;16.96;100.00;101024.69;4981127;28;20370;-79
2021/07/26 03:36:05;;;;;;;33.63;19.95;;;;;;;16.94;100.00;101030.19;4984359;28;20093;-77
2021/07/26 03:38:33;;;;;;;28.13;18.52;;;;;;;16.97;100.00;101029.13;4979982;28;20536;-78
2021/07/26 03:41:01;;;;;;;30.52;19.20;;;;;;;16.96;100.00;101038.19;4982058;28;20066;-72
2021/07/26 03:43:30;;;;;;;26.55;17.20;;;;;;;16.98;100.00;101030.88;4978056;28;20105;-73
2021/07/26 03:45:57;;;;;;;32.47;20.30;;;;;;;16.97;100.00;101035.41;4980460;28;20467;-78
2021/07/26 03:48:25;;;;;;;31.27;19.05;;;;;;;16.95;100.00;101029.19;4980861;28;20101;-78
2021/07/26 03:50:53;;;;;;;31.17;19.42;;;;;;;16.95;100.00;101031.03;4979043;28;20279;-77
2021/07/26 03:53:22;;;;;;;33.92;18.50;;;;;;;16.96;100.00;101027.41;4981204;28;20089;-78
2021/07/26 03:55:50;;;;;;;32.00;19.75;;;;;;;16.94;100.00;101021.19;4977167;28;20086;-77
2021/07/26 03:58:18;;;;;;;30.40;19.77;;;;;;;16.96;100.00;101027.41;4979493;28;20109;-78
2021/07/26 04:00:45;;;;;;;32.40;20.27;;;;;;;16.95;100.00;101022.94;4982147;28;20120;-77
2021/07/26 04:03:19;;;;;;;31.67;18.95;;;;;;;16.96;100.00;101020.16;4976345;28;20070;-79
2021/07/26 04:05:49;;;;;;;32.53;20.90;;;;;;;16.96;100.00;101024.69;4982255;28;20058;-77
2021/07/26 04:08:20;;;;;;;29.85;18.58;;;;;;;16.95;100.00;101023.81;4977049;28;20642;-78
2021/07/26 04:10:52;;;;;;;28.33;18.45;;;;;;;16.97;100.00;101027.31;4980689;28;20105;-77
2021/07/26 04:13:19;;;;;;;35.88;21.05;;;;;;;16.99;100.00;101030.78;4983707;28;20090;-78
2021/07/26 04:15:49;;;;;;;28.98;17.42;;;;;;;16.99;100.00;101030.78;4982168;28;20113;-77
2021/07/26 04:18:17;;;;;;;32.75;19.30;;;;;;;16.97;100.00;101030.00;4984339;28;20097;-74
2021/07/26 04:20:44;;;;;;;30.83;20.10;;;;;;;17.02;100.00;101026.19;4980827;28;20058;-73
2021/07/26 04:23:12;;;;;;;31.15;20.27;;;;;;;16.99;100.00;101025.41;4983728;28;20066;-73
2021/07/26 04:25:40;;;;;;;31.65;19.60;;;;;;;16.97;100.00;101021.91;4985111;28;20108;-73
2021/07/26 04:28:09;;;;;;;27.48;17.63;;;;;;;17.00;100.00;101028.94;4981045;28;20605;-73
2021/07/26 04:30:37;;;;;;;31.67;19.38;;;;;;;17.04;100.00;101027.81;4985288;28;20353;-75
2021/07/26 04:33:04;;;;;;;28.63;17.52;;;;;;;17.08;100.00;101028.53;4983976;28;20042;-73
2021/07/26 04:35:32;;;;;;;33.92;20.60;;;;;;;17.10;100.00;101026.63;4981940;28;20144;-73
2021/07/26 04:38:00;;;;;;;30.60;19.75;;;;;;;17.10;100.00;101032.88;4983533;28;20523;-72
2021/07/26 04:40:27;;;;;;;29.35;19.08;;;;;;;17.11;100.00;101029.22;4980473;28;20069;-73
2021/07/26 04:42:55;;;;;;;33.17;20.25;;;;;;;17.12;100.00;101024.69;4984701;28;20090;-72
2021/07/26 04:45:24;;;;;;;33.97;21.65;;;;;;;17.12;100.00;101028.25;4985323;28;20145;-73
2021/07/26 04:47:52;;;;;;;35.65;21.85;;;;;;;17.14;100.00;101036.25;4982078;28;20157;-74
2021/07/26 04:50:19;;;;;;;32.25;19.50;;;;;;;17.16;100.00;101032.53;4982549;28;20059;-73
2021/07/26 04:52:47;;;;;;;32.80;20.23;;;;;;;17.16;100.00;101034.34;4980722;28;20179;-73
2021/07/26 04:55:15;;;;;;;35.03;21.20;;;;;;;17.18;100.00;101033.31;4984227;28;20448;-73
2021/07/26 04:57:42;;;;;;;35.17;21.23;;;;;;;17.18;100.00;101035.16;4982979;28;20066;-73
2021/07/26 05:00:11;;;;;;;35.80;21.73;;;;;;;17.17;100.00;101034.25;4982033;28;20066;-73
2021/07/26 05:02:40;;;;;;;32.83;19.65;;;;;;;17.25;100.00;101035.66;4985928;28;20066;-78
2021/07/26 05:05:08;;;;;;;32.50;20.77;;;;;;;17.23;100.00;101032.16;4982234;28;20058;-77
2021/07/26 05:07:36;;;;;;;30.15;18.02;;;;;;;17.27;100.00;101031.06;4983441;28;20140;-78
2021/07/26 05:10:04;;;;;;;30.77;19.77;;;;;;;17.27;100.00;101031.06;4984570;28;20129;-77
2021/07/26 05:12:32;;;;;;;28.45;18.73;;;;;;;17.32;100.00;101034.34;4982695;28;20098;-77
2021/07/26 05:15:00;;;;;;;31.38;18.55;;;;;;;17.33;100.00;101033.38;4986022;28;20140;-78
2021/07/26 05:17:27;;;;;;;29.42;19.83;;;;;;;17.31;100.00;101035.31;4979896;28;20062;-77
2021/07/26 05:19:57;;;;;;;34.60;19.85;;;;;;;17.31;100.00;101029.91;4981351;28;20168;-77
2021/07/26 05:22:24;;;;;;;29.75;18.67;;;;;;;17.36;100.00;101027.81;4982283;28;20071;-77
2021/07/26 05:24:53;;;;;;;30.58;19.00;;;;;;;17.38;100.00;101035.81;4980363;28;20066;-77
2021/07/26 05:27:21;;;;;;;28.85;18.17;;;;;;;17.41;100.00;101025.72;4980834;28;20158;-77
2021/07/26 05:29:51;;;;;;;29.98;18.83;;;;;;;17.45;100.00;101026.41;4980113;28;20058;-77
2021/07/26 05:32:18;;;;;;;36.35;20.70;;;;;;;17.49;100.00;101039.63;4984001;28;20073;-77
2021/07/26 05:34:48;;;;;;;32.33;19.52;;;;;;;17.53;100.00;101035.78;4982563;28;20289;-77
2021/07/26 05:37:18;;;;;;;30.23;19.40;;;;;;;17.60;100.00;101033.59;4979238;28;20337;-77
2021/07/26 05:39:45;;;;;;;31.92;20.35;;;;;;;17.68;100.00;101033.16;4985868;28;20269;-76
2021/07/26 05:42:13;;;;;;;34.70;20.95;;;;;;;17.70;100.00;101036.66;4979426;28;20378;-76
2021/07/26 05:44:42;;;;;;;31.77;19.70;;;;;;;17.82;100.00;101024.25;4983608;28;20117;-76
2021/07/26 05:47:11;;;;;;;32.97;20.27;;;;;;;17.89;100.00;101031.06;4981286;28;20178;-75
2021/07/26 05:49:41;;;;;;;26.85;17.85;;;;;;;18.29;100.00;101029.50;4964075;28;20070;-75
2021/07/26 05:52:08;;;;;;;38.15;22.50;;;;;;;18.77;100.00;101031.94;4984957;28;20149;-75
2021/07/26 05:54:37;;;;;;;33.10;20.25;;;;;;;19.07;99.41;101033.69;4977307;28;20470;-74
2021/07/26 05:57:10;;;;;;;30.73;20.52;;;;;;;18.88;99.02;101039.38;4981785;28;20068;-75
2021/07/26 05:59:38;;;;;;;31.77;20.70;;;;;;;18.84;99.60;101037.88;4980889;28;20062;-74
2021/07/26 06:02:05;;;;;;;33.70;20.27;;;;;;;18.91;99.71;101039.19;4979931;28;20437;-74
2021/07/26 06:04:33;;;;;;;26.88;19.23;;;;;;;18.75;98.89;101039.28;4980531;28;20071;-74
2021/07/26 06:07:01;;;;;;;29.60;19.13;;;;;;;18.66;99.73;101043.44;4978736;28;20441;-72
2021/07/26 06:09:29;;;;;;;29.23;17.52;;;;;;;18.67;100.00;101041.59;4982120;28;20102;-71
2021/07/26 06:11:58;;;;;;;28.77;18.77;;;;;;;18.54;100.00;101043.31;4976174;28;20062;-71
2021/07/26 06:14:25;;;;;;;29.80;18.05;;;;;;;18.59;100.00;101041.22;4981024;28;20116;-71
2021/07/26 06:16:54;;;;;;;26.80;16.85;;;;;;;18.70;100.00;101046.81;4985547;28;20142;-71
2021/07/26 06:19:22;;;;;;;29.15;17.77;;;;;;;18.60;100.00;101042.97;4976178;28;20074;-71
2021/07/26 06:21:53;;;;;;;26.75;17.25;;;;;;;18.58;100.00;101048.44;4981075;28;20527;-71
2021/07/26 06:24:21;;;;;;;29.52;18.15;;;;;;;18.51;100.00;101049.81;4975755;28;20205;-71
2021/07/26 06:26:50;;;;;;;26.23;16.38;;;;;;;18.56;100.00;101055.78;4979251;28;20047;-71
2021/07/26 06:29:19;;;;;;;27.63;17.52;;;;;;;18.55;99.56;101051.34;4982092;28;20188;-71
2021/07/26 06:31:48;;;;;;;28.60;17.42;;;;;;;18.42;100.00;101048.56;4976591;28;20262;-72
2021/07/26 06:34:15;;;;;;;32.03;20.13;;;;;;;18.39;100.00;101051.44;4978061;28;20412;-72
2021/07/26 06:36:44;;;;;;;26.30;17.52;;;;;;;18.39;100.00;101053.25;4977371;28;20438;-72
2021/07/26 06:39:13;;;;;;;29.38;18.60;;;;;;;18.24;100.00;101060.47;4980466;28;20046;-72
2021/07/26 06:41:40;;;;;;;31.08;18.90;;;;;;;18.26;100.00;101058.53;4982941;28;20329;-71
2021/07/26 06:44:08;;;;;;;28.65;18.30;;;;;;;18.21;100.00;101052.56;4978409;28;20070;-70
2021/07/26 06:46:39;;;;;;;32.45;19.52;;;;;;;18.28;100.00;101057.47;4983894;28;20369;-70
2021/07/26 06:49:06;;;;;;;27.65;18.55;;;;;;;18.43;100.00;101063.78;4979251;28;20089;-70
2021/07/26 06:51:34;;;;;;;28.60;17.98;;;;;;;18.35;100.00;101071.47;4981120;28;20108;-71
2021/07/26 06:54:02;;;;;;;32.63;19.35;;;;;;;18.44;100.00;101080.88;4982804;28;20100;-72
2021/07/26 06:56:29;;;;;;;31.10;19.98;;;;;;;18.40;100.00;101072.06;4977006;28;20146;-73
2021/07/26 06:58:57;;;;;;;32.72;22.02;;;;;;;18.28;100.00;101076.38;4983499;28;20066;-76
2021/07/26 07:01:25;;;;;;;33.13;20.80;;;;;;;18.41;100.00;101078.34;4979626;28;20079;-74
2021/07/26 07:03:55;;;;;;;39.13;21.52;;;;;;;18.44;100.00;101080.88;4980422;28;20066;-75
2021/07/26 07:06:24;;;;;;;40.88;22.40;;;;;;;18.48;100.00;101077.00;4983158;28;20261;-75
2021/07/26 07:08:52;;;;;;;33.67;21.48;;;;;;;18.50;100.00;101079.63;4979307;28;20054;-74
2021/07/26 07:11:20;;;;;;;37.83;22.95;;;;;;;18.39;100.00;101083.84;4981188;28;20073;-73
2021/07/26 07:13:50;;;;;;;35.70;22.13;;;;;;;18.32;100.00;101077.09;4978250;28;20092;-72
2021/07/26 07:16:20;;;;;;;32.22;19.10;;;;;;;18.37;100.00;101074.09;4981132;28;20062;-73
2021/07/26 07:18:50;;;;;;;34.70;20.77;;;;;;;18.38;100.00;101082.09;4979956;28;20046;-73
2021/07/26 07:21:20;;;;;;;34.78;21.48;;;;;;;18.47;100.00;101072.56;4976802;28;20128;-73
2021/07/26 07:23:48;;;;;;;35.20;21.00;;;;;;;18.48;100.00;101077.00;4987266;28;20042;-73
2021/07/26 07:26:17;;;;;;;37.97;21.52;;;;;;;18.55;100.00;101070.25;4979865;28;20065;-73
2021/07/26 07:28:45;;;;;;;36.13;21.02;;;;;;;18.78;100.00;101076.03;4980487;28;20453;-73
2021/07/26 07:31:16;;;;;;;34.67;21.25;;;;;;;18.91;100.00;101074.34;4979535;28;20120;-73
2021/07/26 07:33:44;;;;;;;36.25;22.48;;;;;;;19.09;100.00;101076.88;4977573;28;20098;-74
2021/07/26 07:36:12;;;;;;;35.60;21.35;;;;;;;19.45;100.00;101073.59;4980847;28;20066;-74
2021/07/26 07:38:41;;;;;;;38.95;23.15;;;;;;;19.96;96.97;101068.41;4978093;28;20478;-73
2021/07/26 07:41:08;;;;;;;34.55;20.92;;;;;;;19.91;97.49;101069.69;4980271;28;20132;-73
2021/07/26 07:43:37;;;;;;;32.55;19.67;;;;;;;19.92;97.92;101064.19;4975102;28;20496;-72
2021/07/26 07:46:05;;;;;;;34.20;21.40;;;;;;;19.82;95.93;101075.72;4975668;28;20170;-75
2021/07/26 07:48:33;;;;;;;35.55;22.33;;;;;;;19.71;97.57;101084.53;4981953;28;20480;-75
2021/07/26 07:51:02;;;;;;;31.13;19.70;;;;;;;19.74;96.84;101085.22;4980952;28;20519;-75
2021/07/26 07:53:29;;;;;;;33.33;21.25;;;;;;;19.70;97.20;101091.78;4982367;28;20339;-71
2021/07/26 07:55:59;;;;;;;34.70;21.67;;;;;;;19.54;97.67;101089.22;4983469;28;20069;-71
2021/07/26 07:58:27;;;;;;;34.40;20.88;;;;;;;19.50;97.43;101089.53;4981036;28;20301;-71
2021/07/26 08:00:57;;;;;;;35.28;22.08;;;;;;;19.43;97.16;101089.06;4984699;28;20478;-70
2021/07/26 08:03:26;;;;;;;33.78;22.15;;;;;;;19.38;96.05;101085.78;4981860;28;20066;-70
2021/07/26 08:05:54;;;;;;;29.65;19.67;;;;;;;19.63;97.29;101090.47;4984317;28;20153;-70
2021/07/26 08:08:23;;;;;;;29.50;19.50;;;;;;;19.90;96.97;101095.91;4982442;28;20140;-70
2021/07/26 08:10:50;;;;;;;26.48;18.05;;;;;;;19.88;96.29;101102.38;4981927;28;20074;-70
2021/07/26 08:13:20;;;;;;;24.67;17.95;;;;;;;19.92;96.74;101102.09;4985406;28;20069;-71
2021/07/26 08:15:50;;;;;;;26.65;18.30;;;;;;;20.08;95.00;101101.06;4981349;28;20101;-69
2021/07/26 08:18:18;;;;;;;24.17;16.65;;;;;;;20.08;94.74;101101.91;4984961;28;20069;-74
2021/07/26 08:20:46;;;;;;;22.75;15.88;;;;;;;20.29;94.00;101096.84;4983990;28;20046;-73
2021/07/26 08:23:15;;;;;;;21.20;15.20;;;;;;;20.41;93.24;101092.44;4983011;28;20066;-69
2021/07/26 08:25:42;;;;;;;20.65;15.02;;;;;;;20.47;92.15;101086.59;4986164;28;20069;-69
2021/07/26 08:28:10;;;;;;;24.40;17.30;;;;;;;20.58;91.75;101093.97;4980357;28;20072;-69
2021/07/26 08:30:39;;;;;;;21.98;15.25;;;;;;;20.62;91.36;101091.91;4983042;28;20281;-69
2021/07/26 08:33:07;;;;;;;21.88;14.57;;;;;;;20.74;91.46;101087.47;4981901;28;20097;-68
2021/07/26 08:35:36;;;;;;;19.58;13.82;;;;;;;20.62;89.07;101091.91;4981249;28;20090;-68
2021/07/26 08:38:04;;;;;;;19.52;13.88;;;;;;;20.52;88.92;101081.72;4986025;28;20066;-71
2021/07/26 08:40:33;;;;;;;17.65;13.27;;;;;;;20.50;89.19;101086.38;4981479;28;20310;-71
2021/07/26 08:43:04;;;;;;;17.60;12.15;;;;;;;20.56;88.24;101086.94;4982835;28;20070;-72
2021/07/26 08:45:32;;;;;;;17.83;12.00;;;;;;;20.75;89.17;101081.97;4983216;28;20113;-72
2021/07/26 08:48:05;;;;;;;18.27;12.65;;;;;;;20.75;88.58;101083.81;4982503;28;20069;-72
2021/07/26 08:50:34;;;;;;;14.40;9.13;;;;;;;20.49;90.34;101091.91;4983388;28;20112;-74
2021/07/26 08:53:04;;;;;;;14.98;9.32;;;;;;;20.49;89.57;101092.75;4980156;28;20066;-73
2021/07/26 08:55:34;;;;;;;13.50;7.88;;;;;;;20.47;89.65;101091.16;4983772;28;20089;-75
2021/07/26 08:58:03;;;;;;;13.60;8.43;;;;;;;20.47;89.86;101094.72;4977973;28;20062;-77
2021/07/26 09:00:31;;;;;;;12.50;8.10;;;;;;;20.28;89.08;101087.00;4980951;28;20331;-75
2021/07/26 09:02:58;;;;;;;12.55;8.88;;;;;;;20.14;90.58;101096.09;4982252;28;20464;-72
2021/07/26 09:05:27;;;;;;;14.85;10.15;;;;;;;20.44;89.05;101097.63;4980123;28;20069;-71
2021/07/26 09:07:55;;;;;;;13.75;9.20;;;;;;;20.62;88.65;101087.41;4982215;28;20441;-69
2021/07/26 09:10:25;;;;;;;13.75;9.32;;;;;;;20.95;86.81;101087.81;4981237;28;20384;-69
2021/07/26 09:12:53;;;;;;;15.63;9.00;;;;;;;20.69;85.68;101091.41;4981131;28;20528;-69
2021/07/26 09:15:28;;;;;;;16.58;10.50;;;;;;;20.60;87.53;101093.84;4984474;28;20049;-69
2021/07/26 09:17:57;;;;;;;17.30;10.93;;;;;;;20.71;86.88;101096.72;4980095;28;20089;-69
2021/07/26 09:20:28;;;;;;;19.15;11.93;;;;;;;20.57;86.99;101086.81;4982960;28;20335;-69
2021/07/26 09:22:58;;;;;;;26.10;15.40;;;;;;;20.88;86.69;101090.97;4978500;28;20338;-69
2021/07/26 09:25:27;;;;;;;25.90;15.25;;;;;;;20.93;84.39;101089.78;4981920;28;20338;-69
2021/07/26 09:28:01;;;;;;;24.65;15.40;;;;;;;21.79;83.00;101088.91;4979955;28;20144;-69
2021/07/26 09:30:34;;;;;;;24.77;14.98;;;;;;;21.57;82.33;101087.81;4981304;28;20116;-72
2021/07/26 09:33:02;;;;;;;22.73;14.27;;;;;;;21.31;84.23;101095.13;4983216;28;20062;-72
2021/07/26 09:35:31;;;;;;;21.67;13.18;;;;;;;21.30;84.87;101100.66;4981425;28;20431;-73
2021/07/26 09:38:02;;;;;;;28.90;16.58;;;;;;;21.42;82.83;101095.19;4983037;28;20161;-72
2021/07/26 09:40:33;;;;;;;30.05;16.45;;;;;;;21.64;82.31;101091.78;4983082;28;20062;-73
2021/07/26 09:43:17;;;;;;;31.58;17.23;;;;;;;22.09;83.36;101091.13;4980748;28;20527;-72
2021/07/26 09:45:45;;;;;;;30.58;17.05;;;;;;;21.95;80.91;101086.75;4981033;28;20133;-72
2021/07/26 09:48:14;;;;;;;23.77;14.52;;;;;;;21.38;82.14;101084.69;4977646;28;20062;-69
2021/07/26 09:50:44;;;;;;;24.10;13.65;;;;;;;21.53;83.84;101085.44;4982057;28;20447;-69
2021/07/26 09:53:15;;;;;;;21.35;13.52;;;;;;;21.68;81.61;101091.56;4977510;28;20089;-69
2021/07/26 09:55:44;;;;;;;27.52;14.07;;;;;;;21.65;82.00;101095.38;4981387;28;20125;-69
2021/07/26 09:58:13;;;;;;;23.73;12.60;;;;;;;21.86;81.83;101094.72;4982201;28;20132;-70
2021/07/26 10:00:42;;;;;;;22.20;12.88;;;;;;;21.35;81.51;101107.50;4978762;28;20567;-70
2021/07/26 10:03:11;;;;;;;15.73;9.63;;;;;;;21.09;78.83;101103.94;4982039;28;20062;-68
2021/07/26 10:05:41;;;;;;;12.13;7.45;;;;;;;21.15;78.49;101099.94;4981336;28;20050;-69
2021/07/26 10:08:10;;;;;;;15.63;9.75;;;;;;;21.40;79.51;101088.13;4980401;28;20145;-69
2021/07/26 10:10:41;;;;;;;12.55;7.22;;;;;;;21.49;78.05;101086.63;4983537;28;20062;-69
2021/07/26 10:13:09;;;;;;;12.90;7.22;;;;;;;21.71;76.64;101089.50;4977729;28;20050;-69
2021/07/26 10:15:38;;;;;;;14.02;8.00;;;;;;;21.92;74.89;101084.28;4984694;28;20065;-69
2021/07/26 10:18:06;;;;;;;21.52;10.20;;;;;;;22.36;72.62;101085.44;4979069;28;20113;-70
2021/07/26 10:20:39;;;;;;;23.17;12.50;;;;;;;23.29;71.76;101081.72;4980381;28;20109;-70
2021/07/26 10:23:11;;;;;;;20.70;11.35;;;;;;;23.34;69.50;101084.03;4982118;28;20153;-70
2021/07/26 10:25:44;;;;;;;29.63;15.93;;;;;;;23.51;69.78;101088.09;4980198;28;20073;-72
2021/07/26 10:28:13;;;;;;;;;;;;;;;23.82;68.42;101082.81;4983290;28;20069;-73
2021/07/26 10:30:41;;;;;;;28.27;15.32;;;;;;;23.78;66.89;101082.19;4975289;28;19996;-72
2021/07/26 10:33:09;;;;;;;26.75;15.95;;;;;;;24.29;66.51;101074.31;4982230;28;20050;-72
2021/07/26 10:35:47;;;;;;;35.80;18.48;;;;;;;24.53;64.65;101079.50;4978956;28;20066;-73
2021/07/26 10:38:15;;;;;;;33.38;17.73;;;;;;;24.80;65.99;101076.22;4978887;28;20066;-73
2021/07/26 10:40:44;;;;;;;32.17;18.05;;;;;;;25.20;64.54;101077.25;4981866;28;20054;-73
2021/07/26 10:43:16;;;;;;;33.15;19.75;;;;;;;25.26;63.88;101079.47;4976046;28;20590;-74
2021/07/26 10:46:01;;;;;;;30.90;17.80;;;;;;;24.87;62.44;101082.88;4982103;28;20420;-73
2021/07/26 10:48:36;;;;;;;32.65;19.65;;;;;;;24.61;65.39;101088.75;4976170;28;20310;-74
2021/07/26 10:51:35;;;;;;;30.52;17.60;;;;;;;24.48;64.74;101090.81;4980008;28;20238;-74
2021/07/26 10:54:03;;;;;;;33.05;20.05;;;;;;;23.74;66.65;101086.19;4980841;28;20077;-73
2021/07/26 10:57:05;;;;;;;32.20;18.45;;;;;;;23.73;67.63;101089.03;4979821;28;20116;-73
2021/07/26 11:00:06;;;;;;;36.13;18.50;;;;;;;23.25;69.89;101099.25;4981663;28;20062;-71
2021/07/26 11:02:35;;;;;;;33.30;18.00;;;;;;;23.07;68.99;101096.19;4980549;28;20109;-71
2021/07/26 11:05:33;;;;;;;29.00;16.25;;;;;;;23.33;68.74;101106.81;4981173;28;20073;-71
2021/07/26 11:08:24;;;;;;;26.45;16.02;;;;;;;22.67;71.24;101096.63;4976628;28;20125;-71
2021/07/26 11:10:53;;;;;;;27.50;15.68;;;;;;;22.64;72.82;101099.56;4982374;28;20074;-72
2021/07/26 11:13:23;;;;;;;27.73;15.73;;;;;;;22.42;73.54;101103.13;4979972;28;20070;-71
2021/07/26 11:15:51;;;;;;;30.17;15.93;;;;;;;22.60;76.78;101103.53;4980952;28;20097;-72
2021/07/26 11:18:21;;;;;;;28.23;15.77;;;;;;;22.29;77.94;101107.81;4978470;28;20068;-71